sensor_id;sensor_type;location;lat;lon;timestamp;temperature;humidity
55329;DHT22;41205;44.264;19.884;2022-12-18T00:00:59;128.70;2252.80
55329;DHT22;41205;44.264;19.884;2022-12-18T00:03:25;128.70;2252.80
55329;DHT22;41205;44.264;19.884;2022-12-18T00:05:52;128.60;2252.80
55329;DHT22;41205;44.264;19.884;2022-12-18T00:08:18;128.70;2252.80
55329;DHT22;41205;44.264;19.884;2022-12-18T00:10:44;128.60;2252.80
55329;DHT22;41205;44.264;19.884;2022-12-18T00:13:10;128.60;2252.80
55329;DHT22;41205;44.264;19.884;2022-12-18T00:15:38;128.60;2252.80
55329;DHT22;41205;44.264;19.884;2022-12-18T00:18:03;128.80;2252.80
55329;DHT22;41205;44.264;19.884;2022-12-18T00:20:29;128.70;2252.80
55329;DHT22;41205;44.264;19.884;2022-12-18T00:22:55;128.80;2252.80
55329;DHT22;41205;44.264;19.884;2022-12-18T00:25:21;128.60;2252.80
55329;DHT22;41205;44.264;19.884;2022-12-18T00:27:47;128.60;2252.80
55329;DHT22;41205;44.264;19.884;2022-12-18T00:30:13;128.60;2252.80
55329;DHT22;41205;44.264;19.884;2022-12-18T00:32:39;128.50;2252.80
55329;DHT22;41205;44.264;19.884;2022-12-18T00:35:06;128.60;2252.80
55329;DHT22;41205;44.264;19.884;2022-12-18T00:37:33;128.50;2252.80
55329;DHT22;41205;44.264;19.884;2022-12-18T00:39:59;128.40;2252.80
55329;DHT22;41205;44.264;19.884;2022-12-18T00:42:25;128.50;2252.80
55329;DHT22;41205;44.264;19.884;2022-12-18T00:45:09;128.40;2252.80
55329;DHT22;41205;44.264;19.884;2022-12-18T00:47:35;128.30;2252.80
55329;DHT22;41205;44.264;19.884;2022-12-18T00:50:01;128.20;2252.80
55329;DHT22;41205;44.264;19.884;2022-12-18T00:52:27;128.30;2252.80
55329;DHT22;41205;44.264;19.884;2022-12-18T00:54:52;128.30;2252.80
55329;DHT22;41205;44.264;19.884;2022-12-18T00:57:18;128.30;2252.80
55329;DHT22;41205;44.264;19.884;2022-12-18T00:59:44;128.40;2252.80
55329;DHT22;41205;44.264;19.884;2022-12-18T01:02:10;128.50;2252.80
55329;DHT22;41205;44.264;19.884;2022-12-18T01:04:36;128.40;2252.80
55329;DHT22;41205;44.264;19.884;2022-12-18T01:07:02;128.60;2252.80
55329;DHT22;41205;44.264;19.884;2022-12-18T01:09:27;128.60;2252.80
55329;DHT22;41205;44.264;19.884;2022-12-18T01:11:53;128.60;2252.80
55329;DHT22;41205;44.264;19.884;2022-12-18T01:14:19;128.70;2252.80
55329;DHT22;41205;44.264;19.884;2022-12-18T01:16:44;128.60;2252.80
55329;DHT22;41205;44.264;19.884;2022-12-18T01:19:10;128.40;2252.80
55329;DHT22;41205;44.264;19.884;2022-12-18T01:21:36;128.40;2252.80
55329;DHT22;41205;44.264;19.884;2022-12-18T01:24:01;128.50;2252.80
55329;DHT22;41205;44.264;19.884;2022-12-18T01:26:28;128.40;2252.80
55329;DHT22;41205;44.264;19.884;2022-12-18T01:28:56;128.40;2252.80
55329;DHT22;41205;44.264;19.884;2022-12-18T01:31:28;128.40;2252.80
55329;DHT22;41205;44.264;19.884;2022-12-18T01:33:55;128.50;2252.80
55329;DHT22;41205;44.264;19.884;2022-12-18T01:36:28;128.60;2252.80
55329;DHT22;41205;44.264;19.884;2022-12-18T01:38:55;128.80;2252.80
55329;DHT22;41205;44.264;19.884;2022-12-18T01:41:24;128.80;2252.80
55329;DHT22;41205;44.264;19.884;2022-12-18T01:43:56;128.60;2252.80
55329;DHT22;41205;44.264;19.884;2022-12-18T01:46:26;128.60;2252.80
55329;DHT22;41205;44.264;19.884;2022-12-18T01:49:00;128.50;2252.80
55329;DHT22;41205;44.264;19.884;2022-12-18T01:51:27;128.50;2252.80
55329;DHT22;41205;44.264;19.884;2022-12-18T01:53:54;128.70;2252.80
55329;DHT22;41205;44.264;19.884;2022-12-18T01:56:21;128.60;2252.80
55329;DHT22;41205;44.264;19.884;2022-12-18T01:58:58;128.90;2252.80
55329;DHT22;41205;44.264;19.884;2022-12-18T02:01:25;128.80;2252.80
55329;DHT22;41205;44.264;19.884;2022-12-18T02:03:52;128.80;2252.80
55329;DHT22;41205;44.264;19.884;2022-12-18T02:08:57;128.70;2252.80
55329;DHT22;41205;44.264;19.884;2022-12-18T02:16:59;128.60;2252.80
55329;DHT22;41205;44.264;19.884;2022-12-18T02:27:40;128.40;2252.80
55329;DHT22;41205;44.264;19.884;2022-12-18T02:30:07;128.50;2252.80
55329;DHT22;41205;44.264;19.884;2022-12-18T02:32:47;128.50;2252.80
55329;DHT22;41205;44.264;19.884;2022-12-18T02:35:27;128.50;2252.80
55329;DHT22;41205;44.264;19.884;2022-12-18T02:37:54;128.60;2252.80
55329;DHT22;41205;44.264;19.884;2022-12-18T02:40:23;128.60;2252.80
55329;DHT22;41205;44.264;19.884;2022-12-18T02:42:49;128.40;2252.80
55329;DHT22;41205;44.264;19.884;2022-12-18T02:45:15;128.40;2252.80
55329;DHT22;41205;44.264;19.884;2022-12-18T02:47:43;128.50;2252.80
55329;DHT22;41205;44.264;19.884;2022-12-18T02:53:36;128.60;2252.80
55329;DHT22;41205;44.264;19.884;2022-12-18T02:56:14;128.60;2252.80
55329;DHT22;41205;44.264;19.884;2022-12-18T02:58:59;128.40;2252.80
55329;DHT22;41205;44.264;19.884;2022-12-18T03:01:33;128.60;2252.80
55329;DHT22;41205;44.264;19.884;2022-12-18T03:04:06;128.60;2252.80
55329;DHT22;41205;44.264;19.884;2022-12-18T03:06:40;128.70;2252.80
55329;DHT22;41205;44.264;19.884;2022-12-18T03:09:21;128.50;2252.80
55329;DHT22;41205;44.264;19.884;2022-12-18T03:12:01;128.60;2252.80
55329;DHT22;41205;44.264;19.884;2022-12-18T03:14:55;128.50;2252.80
55329;DHT22;41205;44.264;19.884;2022-12-18T03:17:27;128.50;2252.80
55329;DHT22;41205;44.264;19.884;2022-12-18T03:19:56;128.10;2252.80
55329;DHT22;41205;44.264;19.884;2022-12-18T03:22:23;128.30;2252.80
55329;DHT22;41205;44.264;19.884;2022-12-18T03:24:51;128.30;2252.80
55329;DHT22;41205;44.264;19.884;2022-12-18T03:27:20;128.30;2252.80
55329;DHT22;41205;44.264;19.884;2022-12-18T03:30:03;128.40;2252.80
55329;DHT22;41205;44.264;19.884;2022-12-18T03:33:08;128.50;2252.80
55329;DHT22;41205;44.264;19.884;2022-12-18T03:35:39;128.30;2252.80
55329;DHT22;41205;44.264;19.884;2022-12-18T03:38:06;128.30;2252.80
55329;DHT22;41205;44.264;19.884;2022-12-18T03:40:51;128.30;2252.80
55329;DHT22;41205;44.264;19.884;2022-12-18T03:49:01;128.10;2252.80
55329;DHT22;41205;44.264;19.884;2022-12-18T03:54:01;128.10;2252.80
55329;DHT22;41205;44.264;19.884;2022-12-18T03:56:35;128.10;2252.80
55329;DHT22;41205;44.264;19.884;2022-12-18T03:59:03;128.10;2252.80
55329;DHT22;41205;44.264;19.884;2022-12-18T04:01:39;103.30;2227.20
55329;DHT22;41205;44.264;19.884;2022-12-18T04:04:07;128.10;2252.80
55329;DHT22;41205;44.264;19.884;2022-12-18T04:06:36;128.10;2252.80
55329;DHT22;41205;44.264;19.884;2022-12-18T04:09:04;128.20;2252.80
55329;DHT22;41205;44.264;19.884;2022-12-18T04:11:30;128.30;2252.80
55329;DHT22;41205;44.264;19.884;2022-12-18T04:13:56;128.30;2252.80
55329;DHT22;41205;44.264;19.884;2022-12-18T04:16:23;128.30;2252.80
55329;DHT22;41205;44.264;19.884;2022-12-18T04:18:49;128.30;2252.80
55329;DHT22;41205;44.264;19.884;2022-12-18T04:21:15;128.30;2252.80
55329;DHT22;41205;44.264;19.884;2022-12-18T04:23:40;128.30;2252.80
55329;DHT22;41205;44.264;19.884;2022-12-18T04:26:06;128.10;2252.80
55329;DHT22;41205;44.264;19.884;2022-12-18T04:28:32;128.20;2252.80
55329;DHT22;41205;44.264;19.884;2022-12-18T04:30:57;128.20;2252.80
55329;DHT22;41205;44.264;19.884;2022-12-18T04:33:23;128.20;2252.80
55329;DHT22;41205;44.264;19.884;2022-12-18T04:35:49;128.30;2252.80
55329;DHT22;41205;44.264;19.884;2022-12-18T04:38:14;128.30;2252.80
55329;DHT22;41205;44.264;19.884;2022-12-18T04:40:40;128.40;2252.80
55329;DHT22;41205;44.264;19.884;2022-12-18T04:43:06;128.20;2252.80
55329;DHT22;41205;44.264;19.884;2022-12-18T04:45:32;128.20;2252.80
55329;DHT22;41205;44.264;19.884;2022-12-18T04:47:59;128.10;2252.80
55329;DHT22;41205;44.264;19.884;2022-12-18T04:50:25;128.10;2252.80
55329;DHT22;41205;44.264;19.884;2022-12-18T04:52:51;128.10;2252.80
55329;DHT22;41205;44.264;19.884;2022-12-18T04:55:16;103.30;2227.20
55329;DHT22;41205;44.264;19.884;2022-12-18T04:57:42;128.00;2252.80
55329;DHT22;41205;44.264;19.884;2022-12-18T05:00:08;128.00;2252.80
55329;DHT22;41205;44.264;19.884;2022-12-18T05:02:34;128.10;2252.80
55329;DHT22;41205;44.264;19.884;2022-12-18T05:05:00;128.10;2252.80
55329;DHT22;41205;44.264;19.884;2022-12-18T05:07:25;128.00;2252.80
55329;DHT22;41205;44.264;19.884;2022-12-18T05:09:51;128.00;2252.80
55329;DHT22;41205;44.264;19.884;2022-12-18T05:12:17;103.20;2227.20
55329;DHT22;41205;44.264;19.884;2022-12-18T05:14:42;103.20;2227.20
55329;DHT22;41205;44.264;19.884;2022-12-18T05:17:08;103.20;2227.20
55329;DHT22;41205;44.264;19.884;2022-12-18T05:19:34;128.00;2252.80
55329;DHT22;41205;44.264;19.884;2022-12-18T05:22:00;128.10;2252.80
55329;DHT22;41205;44.264;19.884;2022-12-18T05:24:27;128.00;2252.80
55329;DHT22;41205;44.264;19.884;2022-12-18T05:26:52;103.30;2227.20
55329;DHT22;41205;44.264;19.884;2022-12-18T05:29:18;103.20;2227.20
55329;DHT22;41205;44.264;19.884;2022-12-18T05:31:44;103.20;2227.20
55329;DHT22;41205;44.264;19.884;2022-12-18T05:34:09;103.30;2227.20
55329;DHT22;41205;44.264;19.884;2022-12-18T05:36:35;103.20;2227.20
55329;DHT22;41205;44.264;19.884;2022-12-18T05:39:01;103.20;2227.20
55329;DHT22;41205;44.264;19.884;2022-12-18T05:41:28;103.10;2227.20
55329;DHT22;41205;44.264;19.884;2022-12-18T05:43:54;103.20;2227.20
55329;DHT22;41205;44.264;19.884;2022-12-18T05:46:20;103.20;2227.20
55329;DHT22;41205;44.264;19.884;2022-12-18T05:48:46;103.20;2227.20
55329;DHT22;41205;44.264;19.884;2022-12-18T05:51:16;103.30;2227.20
55329;DHT22;41205;44.264;19.884;2022-12-18T05:53:43;128.00;2252.80
55329;DHT22;41205;44.264;19.884;2022-12-18T05:56:13;128.20;2252.80
55329;DHT22;41205;44.264;19.884;2022-12-18T05:58:40;128.20;2252.80
55329;DHT22;41205;44.264;19.884;2022-12-18T06:03:36;128.00;2252.80
55329;DHT22;41205;44.264;19.884;2022-12-18T06:06:01;128.00;2252.80
55329;DHT22;41205;44.264;19.884;2022-12-18T06:08:27;103.30;2227.20
55329;DHT22;41205;44.264;19.884;2022-12-18T06:10:53;128.10;2252.80
55329;DHT22;41205;44.264;19.884;2022-12-18T06:13:19;128.00;2252.80
55329;DHT22;41205;44.264;19.884;2022-12-18T06:15:45;128.10;2252.80
55329;DHT22;41205;44.264;19.884;2022-12-18T06:18:11;128.10;2252.80
55329;DHT22;41205;44.264;19.884;2022-12-18T06:20:36;128.00;2252.80
55329;DHT22;41205;44.264;19.884;2022-12-18T06:23:05;128.10;2252.80
55329;DHT22;41205;44.264;19.884;2022-12-18T06:25:31;103.20;2227.20
55329;DHT22;41205;44.264;19.884;2022-12-18T06:27:57;103.10;2227.20
55329;DHT22;41205;44.264;19.884;2022-12-18T06:30:23;103.20;2227.20
55329;DHT22;41205;44.264;19.884;2022-12-18T06:32:49;128.00;2252.80
55329;DHT22;41205;44.264;19.884;2022-12-18T06:35:15;128.10;2252.80
55329;DHT22;41205;44.264;19.884;2022-12-18T06:37:41;128.00;2252.80
55329;DHT22;41205;44.264;19.884;2022-12-18T06:40:07;128.20;2252.80
55329;DHT22;41205;44.264;19.884;2022-12-18T06:42:33;128.30;2252.80
55329;DHT22;41205;44.264;19.884;2022-12-18T06:44:58;128.30;2252.80
55329;DHT22;41205;44.264;19.884;2022-12-18T06:47:24;128.40;2252.80
55329;DHT22;41205;44.264;19.884;2022-12-18T06:49:50;128.40;2252.80
55329;DHT22;41205;44.264;19.884;2022-12-18T06:52:15;128.30;2252.80
55329;DHT22;41205;44.264;19.884;2022-12-18T06:54:41;128.40;2252.80
55329;DHT22;41205;44.264;19.884;2022-12-18T06:57:07;128.30;2252.80
55329;DHT22;41205;44.264;19.884;2022-12-18T06:59:32;128.30;2252.80
55329;DHT22;41205;44.264;19.884;2022-12-18T07:01:58;128.40;2252.80
55329;DHT22;41205;44.264;19.884;2022-12-18T07:04:30;128.40;2252.80
55329;DHT22;41205;44.264;19.884;2022-12-18T07:06:56;128.30;2252.80
55329;DHT22;41205;44.264;19.884;2022-12-18T07:09:21;128.40;2252.80
55329;DHT22;41205;44.264;19.884;2022-12-18T07:11:47;128.30;2252.80
55329;DHT22;41205;44.264;19.884;2022-12-18T07:14:12;128.30;2252.80
55329;DHT22;41205;44.264;19.884;2022-12-18T07:16:38;128.40;2252.80
55329;DHT22;41205;44.264;19.884;2022-12-18T07:19:04;128.30;2252.80
55329;DHT22;41205;44.264;19.884;2022-12-18T07:21:30;128.00;2252.80
55329;DHT22;41205;44.264;19.884;2022-12-18T07:23:56;128.00;2252.80
55329;DHT22;41205;44.264;19.884;2022-12-18T07:26:22;128.20;2252.80
55329;DHT22;41205;44.264;19.884;2022-12-18T07:28:48;128.00;2252.80
55329;DHT22;41205;44.264;19.884;2022-12-18T07:31:17;128.20;2252.80
55329;DHT22;41205;44.264;19.884;2022-12-18T07:33:44;128.20;2252.80
55329;DHT22;41205;44.264;19.884;2022-12-18T07:36:10;128.30;2252.80
55329;DHT22;41205;44.264;19.884;2022-12-18T07:38:36;128.30;2252.80
55329;DHT22;41205;44.264;19.884;2022-12-18T07:41:12;128.40;2252.80
55329;DHT22;41205;44.264;19.884;2022-12-18T07:43:39;128.50;2252.80
55329;DHT22;41205;44.264;19.884;2022-12-18T07:46:06;128.50;2252.80
55329;DHT22;41205;44.264;19.884;2022-12-18T07:48:32;128.40;2252.80
55329;DHT22;41205;44.264;19.884;2022-12-18T07:51:02;128.10;2252.80
55329;DHT22;41205;44.264;19.884;2022-12-18T07:53:30;128.00;2252.80
55329;DHT22;41205;44.264;19.884;2022-12-18T07:56:07;128.30;2252.80
55329;DHT22;41205;44.264;19.884;2022-12-18T07:58:34;128.40;2252.80
55329;DHT22;41205;44.264;19.884;2022-12-18T08:01:08;128.60;2252.80
55329;DHT22;41205;44.264;19.884;2022-12-18T08:03:34;128.50;2252.80
55329;DHT22;41205;44.264;19.884;2022-12-18T08:06:01;128.50;2252.80
55329;DHT22;41205;44.264;19.884;2022-12-18T08:08:28;128.60;2252.80
55329;DHT22;41205;44.264;19.884;2022-12-18T08:10:54;128.40;2252.80
55329;DHT22;41205;44.264;19.884;2022-12-18T08:13:19;128.30;2252.80
55329;DHT22;41205;44.264;19.884;2022-12-18T08:15:45;128.20;2252.80
55329;DHT22;41205;44.264;19.884;2022-12-18T08:18:11;128.40;2252.80
55329;DHT22;41205;44.264;19.884;2022-12-18T08:20:36;128.60;2252.80
55329;DHT22;41205;44.264;19.884;2022-12-18T08:23:02;128.50;2252.80
55329;DHT22;41205;44.264;19.884;2022-12-18T08:25:29;128.60;2252.80
55329;DHT22;41205;44.264;19.884;2022-12-18T08:27:55;128.70;2252.80
55329;DHT22;41205;44.264;19.884;2022-12-18T08:30:22;128.70;2252.80
55329;DHT22;41205;44.264;19.884;2022-12-18T08:32:51;128.60;2252.80
55329;DHT22;41205;44.264;19.884;2022-12-18T08:35:18;128.90;2252.80
55329;DHT22;41205;44.264;19.884;2022-12-18T08:37:44;128.90;2252.80
55329;DHT22;41205;44.264;19.884;2022-12-18T08:40:10;128.60;2252.80
55329;DHT22;41205;44.264;19.884;2022-12-18T08:42:35;128.90;2252.80
55329;DHT22;41205;44.264;19.884;2022-12-18T08:45:19;153.60;2252.80
55329;DHT22;41205;44.264;19.884;2022-12-18T08:47:45;153.60;2252.80
55329;DHT22;41205;44.264;19.884;2022-12-18T08:50:11;128.80;2252.80
55329;DHT22;41205;44.264;19.884;2022-12-18T08:52:37;128.80;2252.80
55329;DHT22;41205;44.264;19.884;2022-12-18T08:55:03;128.50;2252.80
55329;DHT22;41205;44.264;19.884;2022-12-18T08:57:29;128.70;2252.80
55329;DHT22;41205;44.264;19.884;2022-12-18T08:59:54;128.60;2252.80
55329;DHT22;41205;44.264;19.884;2022-12-18T09:02:20;128.50;2252.80
55329;DHT22;41205;44.264;19.884;2022-12-18T09:04:48;128.60;2252.80
55329;DHT22;41205;44.264;19.884;2022-12-18T09:07:14;128.70;2252.80
55329;DHT22;41205;44.264;19.884;2022-12-18T09:09:40;128.80;2252.80
55329;DHT22;41205;44.264;19.884;2022-12-18T09:12:06;128.80;2252.80
55329;DHT22;41205;44.264;19.884;2022-12-18T09:14:31;128.70;2252.80
55329;DHT22;41205;44.264;19.884;2022-12-18T09:16:57;128.60;2252.80
55329;DHT22;41205;44.264;19.884;2022-12-18T09:19:23;128.80;2252.80
55329;DHT22;41205;44.264;19.884;2022-12-18T09:21:48;128.70;2252.80
55329;DHT22;41205;44.264;19.884;2022-12-18T09:24:15;128.80;2252.80
55329;DHT22;41205;44.264;19.884;2022-12-18T09:26:40;128.70;2252.80
55329;DHT22;41205;44.264;19.884;2022-12-18T09:29:06;153.60;2252.80
55329;DHT22;41205;44.264;19.884;2022-12-18T09:31:35;153.60;2252.80
55329;DHT22;41205;44.264;19.884;2022-12-18T09:34:01;153.80;2252.80
55329;DHT22;41205;44.264;19.884;2022-12-18T09:36:27;153.60;2252.80
55329;DHT22;41205;44.264;19.884;2022-12-18T09:38:53;128.60;2252.80
55329;DHT22;41205;44.264;19.884;2022-12-18T09:41:50;128.60;2252.80
55329;DHT22;41205;44.264;19.884;2022-12-18T09:44:32;128.20;2252.80
55329;DHT22;41205;44.264;19.884;2022-12-18T09:47:27;128.70;2252.80
55329;DHT22;41205;44.264;19.884;2022-12-18T09:50:00;128.70;2252.80
55329;DHT22;41205;44.264;19.884;2022-12-18T09:52:37;128.70;2252.80
55329;DHT22;41205;44.264;19.884;2022-12-18T09:55:06;128.50;2252.80
55329;DHT22;41205;44.264;19.884;2022-12-18T09:57:40;153.70;2252.80
55329;DHT22;41205;44.264;19.884;2022-12-18T10:00:20;153.80;2252.80
55329;DHT22;41205;44.264;19.884;2022-12-18T10:02:47;153.60;2252.80
55329;DHT22;41205;44.264;19.884;2022-12-18T10:05:16;153.80;2252.80
55329;DHT22;41205;44.264;19.884;2022-12-18T10:10:20;153.60;2252.80
55329;DHT22;41205;44.264;19.884;2022-12-18T10:13:09;153.70;2252.80
55329;DHT22;41205;44.264;19.884;2022-12-18T10:15:54;153.70;2252.80
55329;DHT22;41205;44.264;19.884;2022-12-18T10:21:14;154.30;2252.80
55329;DHT22;41205;44.264;19.884;2022-12-18T10:26:10;154.10;2252.80
55329;DHT22;41205;44.264;19.884;2022-12-18T10:28:39;154.10;2252.80
55329;DHT22;41205;44.264;19.884;2022-12-18T10:31:16;154.20;2252.80
55329;DHT22;41205;44.264;19.884;2022-12-18T10:33:42;153.80;2252.80
55329;DHT22;41205;44.264;19.884;2022-12-18T10:36:08;153.70;2252.80
55329;DHT22;41205;44.264;19.884;2022-12-18T10:38:34;128.90;2252.80
55329;DHT22;41205;44.264;19.884;2022-12-18T10:48:47;153.80;2252.80
55329;DHT22;41205;44.264;19.884;2022-12-18T10:54:00;154.00;2252.80
55329;DHT22;41205;44.264;19.884;2022-12-18T10:56:28;128.90;2252.80
55329;DHT22;41205;44.264;19.884;2022-12-18T10:59:04;153.70;2252.80
55329;DHT22;41205;44.264;19.884;2022-12-18T11:01:55;128.70;2252.80
55329;DHT22;41205;44.264;19.884;2022-12-18T11:04:22;128.60;2252.80
55329;DHT22;41205;44.264;19.884;2022-12-18T11:09:24;128.90;2252.80
55329;DHT22;41205;44.264;19.884;2022-12-18T11:11:53;128.70;2252.80
55329;DHT22;41205;44.264;19.884;2022-12-18T11:14:47;128.70;2252.80
55329;DHT22;41205;44.264;19.884;2022-12-18T11:17:28;128.90;2252.80
55329;DHT22;41205;44.264;19.884;2022-12-18T11:19:59;153.60;2252.80
55329;DHT22;41205;44.264;19.884;2022-12-18T11:22:26;128.90;2252.80
55329;DHT22;41205;44.264;19.884;2022-12-18T11:27:22;128.80;2252.80
55329;DHT22;41205;44.264;19.884;2022-12-18T11:29:50;153.70;2252.80
55329;DHT22;41205;44.264;19.884;2022-12-18T11:35:19;153.90;2252.80
55329;DHT22;41205;44.264;19.884;2022-12-18T11:37:59;154.20;2252.80
55329;DHT22;41205;44.264;19.884;2022-12-18T11:40:37;153.80;2252.80
55329;DHT22;41205;44.264;19.884;2022-12-18T11:43:17;153.90;2252.80
55329;DHT22;41205;44.264;19.884;2022-12-18T11:45:50;154.00;2252.80
55329;DHT22;41205;44.264;19.884;2022-12-18T11:48:22;154.20;2252.80
55329;DHT22;41205;44.264;19.884;2022-12-18T11:50:57;154.20;2252.80
55329;DHT22;41205;44.264;19.884;2022-12-18T11:53:25;154.30;2252.80
55329;DHT22;41205;44.264;19.884;2022-12-18T12:07:44;154.50;2252.80
55329;DHT22;41205;44.264;19.884;2022-12-18T12:21:25;154.50;2252.80
55329;DHT22;41205;44.264;19.884;2022-12-18T12:24:10;154.20;2252.80
55329;DHT22;41205;44.264;19.884;2022-12-18T12:29:36;154.30;2252.80
55329;DHT22;41205;44.264;19.884;2022-12-18T12:40:24;154.10;2252.80
55329;DHT22;41205;44.264;19.884;2022-12-18T12:42:57;154.20;2252.80
55329;DHT22;41205;44.264;19.884;2022-12-18T12:48:47;154.50;2252.80
55329;DHT22;41205;44.264;19.884;2022-12-18T12:51:29;154.10;2252.80
55329;DHT22;41205;44.264;19.884;2022-12-18T12:53:57;154.30;2252.80
55329;DHT22;41205;44.264;19.884;2022-12-18T12:56:29;154.50;2252.80
55329;DHT22;41205;44.264;19.884;2022-12-18T13:01:36;154.40;2252.80
55329;DHT22;41205;44.264;19.884;2022-12-18T13:04:11;154.10;2252.80
55329;DHT22;41205;44.264;19.884;2022-12-18T13:06:43;154.10;2252.80
55329;DHT22;41205;44.264;19.884;2022-12-18T13:09:11;154.20;2252.80
55329;DHT22;41205;44.264;19.884;2022-12-18T13:14:24;154.40;2252.80
55329;DHT22;41205;44.264;19.884;2022-12-18T13:16:50;179.20;2252.80
55329;DHT22;41205;44.264;19.884;2022-12-18T13:19:23;179.40;2252.80
55329;DHT22;41205;44.264;19.884;2022-12-18T13:21:55;179.20;2252.80
55329;DHT22;41205;44.264;19.884;2022-12-18T13:24:28;179.40;2252.80
55329;DHT22;41205;44.264;19.884;2022-12-18T13:26:55;179.40;2252.80
55329;DHT22;41205;44.264;19.884;2022-12-18T13:29:48;179.40;2252.80
55329;DHT22;41205;44.264;19.884;2022-12-18T13:32:39;179.20;2252.80
55329;DHT22;41205;44.264;19.884;2022-12-18T13:37:51;179.20;2252.80
55329;DHT22;41205;44.264;19.884;2022-12-18T13:40:53;154.40;2252.80
55329;DHT22;41205;44.264;19.884;2022-12-18T13:46:20;154.20;2252.80
55329;DHT22;41205;44.264;19.884;2022-12-18T13:48:59;154.20;2252.80
55329;DHT22;41205;44.264;19.884;2022-12-18T13:51:28;153.90;2252.80
55329;DHT22;41205;44.264;19.884;2022-12-18T13:53:59;153.80;2252.80
55329;DHT22;41205;44.264;19.884;2022-12-18T13:56:30;153.80;2252.80
55329;DHT22;41205;44.264;19.884;2022-12-18T14:01:44;154.10;2252.80
55329;DHT22;41205;44.264;19.884;2022-12-18T14:04:12;154.30;2252.80
55329;DHT22;41205;44.264;19.884;2022-12-18T14:06:38;154.10;2252.80
55329;DHT22;41205;44.264;19.884;2022-12-18T14:09:04;154.20;2252.80
55329;DHT22;41205;44.264;19.884;2022-12-18T14:11:30;154.00;2252.80
55329;DHT22;41205;44.264;19.884;2022-12-18T14:13:57;153.90;2252.80
55329;DHT22;41205;44.264;19.884;2022-12-18T14:16:23;153.70;2252.80
55329;DHT22;41205;44.264;19.884;2022-12-18T14:18:56;153.80;2252.80
55329;DHT22;41205;44.264;19.884;2022-12-18T14:21:28;128.90;2252.80
55329;DHT22;41205;44.264;19.884;2022-12-18T14:26:39;128.90;2252.80
55329;DHT22;41205;44.264;19.884;2022-12-18T14:31:45;153.70;2252.80
55329;DHT22;41205;44.264;19.884;2022-12-18T14:34:17;153.70;2252.80
55329;DHT22;41205;44.264;19.884;2022-12-18T14:36:53;153.70;2252.80
55329;DHT22;41205;44.264;19.884;2022-12-18T14:39:20;128.80;2252.80
55329;DHT22;41205;44.264;19.884;2022-12-18T14:41:48;128.90;2252.80
55329;DHT22;41205;44.264;19.884;2022-12-18T14:44:18;128.40;2252.80
55329;DHT22;41205;44.264;19.884;2022-12-18T14:46:49;128.50;2252.80
55329;DHT22;41205;44.264;19.884;2022-12-18T14:49:32;128.60;2252.80
55329;DHT22;41205;44.264;19.884;2022-12-18T14:52:06;128.80;2252.80
55329;DHT22;41205;44.264;19.884;2022-12-18T14:54:45;128.80;2252.80
55329;DHT22;41205;44.264;19.884;2022-12-18T14:59:48;128.60;2252.80
55329;DHT22;41205;44.264;19.884;2022-12-18T15:02:24;128.40;2252.80
55329;DHT22;41205;44.264;19.884;2022-12-18T15:05:26;128.30;2252.80
55329;DHT22;41205;44.264;19.884;2022-12-18T15:07:54;128.30;2252.80
55329;DHT22;41205;44.264;19.884;2022-12-18T15:12:49;128.00;2252.80
55329;DHT22;41205;44.264;19.884;2022-12-18T15:23:26;128.10;2252.80
55329;DHT22;41205;44.264;19.884;2022-12-18T15:26:09;128.20;2252.80
55329;DHT22;41205;44.264;19.884;2022-12-18T15:28:52;128.20;2252.80
55329;DHT22;41205;44.264;19.884;2022-12-18T15:31:29;103.30;2227.20
55329;DHT22;41205;44.264;19.884;2022-12-18T15:36:23;103.30;2227.20
55329;DHT22;41205;44.264;19.884;2022-12-18T15:38:50;128.00;2252.80
55329;DHT22;41205;44.264;19.884;2022-12-18T15:41:18;103.20;2227.20
55329;DHT22;41205;44.264;19.884;2022-12-18T15:43:45;103.10;2227.20
55329;DHT22;41205;44.264;19.884;2022-12-18T15:46:15;103.10;2227.20
55329;DHT22;41205;44.264;19.884;2022-12-18T15:48:43;103.00;2227.20
55329;DHT22;41205;44.264;19.884;2022-12-18T15:53:43;103.10;2227.20
55329;DHT22;41205;44.264;19.884;2022-12-18T15:56:14;103.20;2227.20
55329;DHT22;41205;44.264;19.884;2022-12-18T15:58:59;103.10;2227.20
55329;DHT22;41205;44.264;19.884;2022-12-18T16:01:27;103.10;2227.20
55329;DHT22;41205;44.264;19.884;2022-12-18T16:03:53;128.00;2252.80
55329;DHT22;41205;44.264;19.884;2022-12-18T16:06:20;128.00;2252.80
55329;DHT22;41205;44.264;19.884;2022-12-18T16:08:46;128.10;2252.80
55329;DHT22;41205;44.264;19.884;2022-12-18T16:11:22;128.00;2252.80
55329;DHT22;41205;44.264;19.884;2022-12-18T16:14:25;103.00;2227.20
55329;DHT22;41205;44.264;19.884;2022-12-18T16:16:57;103.10;2227.20
55329;DHT22;41205;44.264;19.884;2022-12-18T16:19:23;103.10;2227.20
55329;DHT22;41205;44.264;19.884;2022-12-18T16:21:51;103.00;2227.20
55329;DHT22;41205;44.264;19.884;2022-12-18T16:24:23;103.30;2227.20
55329;DHT22;41205;44.264;19.884;2022-12-18T16:26:49;128.00;2252.80
55329;DHT22;41205;44.264;19.884;2022-12-18T16:29:17;128.00;2252.80
55329;DHT22;41205;44.264;19.884;2022-12-18T16:31:43;128.00;2252.80
55329;DHT22;41205;44.264;19.884;2022-12-18T16:36:37;103.10;2227.20
55329;DHT22;41205;44.264;19.884;2022-12-18T16:39:03;103.10;2227.20
55329;DHT22;41205;44.264;19.884;2022-12-18T16:41:28;103.10;2227.20
55329;DHT22;41205;44.264;19.884;2022-12-18T16:43:57;103.30;2227.20
55329;DHT22;41205;44.264;19.884;2022-12-18T16:46:23;103.10;2227.20
55329;DHT22;41205;44.264;19.884;2022-12-18T16:48:49;103.20;2227.20
55329;DHT22;41205;44.264;19.884;2022-12-18T16:51:15;103.20;2227.20
55329;DHT22;41205;44.264;19.884;2022-12-18T16:53:41;103.20;2227.20
55329;DHT22;41205;44.264;19.884;2022-12-18T16:56:07;103.00;2227.20
55329;DHT22;41205;44.264;19.884;2022-12-18T16:58:33;102.80;2227.20
55329;DHT22;41205;44.264;19.884;2022-12-18T17:00:59;103.00;2227.20
55329;DHT22;41205;44.264;19.884;2022-12-18T17:03:24;103.10;2227.20